Main page
METAR-TAF:

METAR-TAF

Airports :

Olney-Noble Airport

Olney-Noble, Illinois, United States

latitude: 38-43-19N, longitude: 088-10-35W, elevation: 482 ft

Current weather observation

The report was made 32 minutes ago, at 06:50 UTC
Calm wind
Temperature 41°F
Humidity 70%
Pressure 30.20 in. Hg
Visibility: 10 miles
Clear sky

METAR: KOLY 220650Z AUTO 00000KT 10SM CLR 05/00 A3020 RMK AO2 T00460004

Time: 02:22 (07:22 UTC)


TAF: missing

Weather observations and forecasts of more than 4000 airports (METAR and TAF reports).

The available stations are represented by yellow and red dots on the map.

Hover mouse over dot to see the name of the station.

Then click to see weather observations and forecasts.

To change the map : click on the green buttons with a black cross to zoom in, on the green button with a dash to zoom out, or on the green arrows for adjacent maps.


METAR-TAF: